Aeroporto :
LOGIN :

Iscrizione | Disclaimer

   EN    FR    IT 

 










Sommario :    VFR   VFR Marginale   IFR   IFR Intensivo   IFR Molto Intensivo
Visibilità : 
Base nubi : 
>= 8 km
>= 3000ft
5 / 8 km
1000 / 3000 ft
1500m / 5 km
500 / 1000 ft
800 / 1500m
200 / 500 ft
< 800m
< 200 ft
Simboli :   Temporali  Nebbia  Neve Forte  Precipitazioni Forti  Vento > 20 kt
SIGMETs :   Varie  Temporali  Ghiacco  Turbolenza  Onda orograficha  Ceneri Vulcaniche






- Altitudine del aeroporto : 74 ft
- Codice IATA : NDZ


ETMN - Cuxhaven Nordholz Sea AB

ULTIMO METAR :
  • 271320Z 34013KT 9999 FEW013 BKN047 15/09 Q1033 BLU BLU

METARs OBSOLETI :
  • 271220Z 35011KT 9999 SCT013 BKN053 16/10 Q1033 BLU BLU TEMPO GRN
  • 271204Z 35011G24KT 9999 BKN014 BKN060 16/10 Q1033 GRN BLU TEMPO GRN
  • 271120Z 33010KT 9999 SCT015 SCT060 16/10 Q1033 BLU+BLU TEMPO GRN

TAF TAF ETMN
Valido dal 27 a 11 ore il 27 a 20 ore UTC


271015Z 2711/2720 33010KT 9999 NSW SCT010 BKN060
BECMG 2711/2718 34012KT 8000 NSW BKN010 BKN060



MetMap, La meteo Aeronautica in un colpo d'occhio ! - Copyright ORBIFLY Dicembre 2007 - Disclaimer

ORBIFLY MET'MAP TEAM :

Programmazione e sviluppo : Alexandra Zaïnal
Concezione : Baudouin d'Aumeries
Aiuto per la programmazione : Marc-Olivier Méhu
Supporto tecnico e logistico : Manuel Goepfert
Aiuto per la traduzione : Arnaldo La Scala

Contatto : metmap@orbifly.com




FONTI E CREDITI :

   NOAA